Time;durP1;ratioP1;P1;durP2;ratioP2;P2;SDS_P1;SDS_P2;PMS_P1;PMS_P2;Temp;Humidity;BMP_temperature;BMP_pressure;BME280_temperature;BME280_humidity;BME280_pressure;Samples;Min_cycle;Max_cycle;Signal;HPM_P1;HPM_P2
2022/11/17 00:00:41;;;;;;;13.57;9.27;;;14.00;99.90;;;;;;5069876;28;20252;-78
2022/11/17 00:03:13;;;;;;;10.97;8.53;;;14.00;99.90;;;;;;5071823;28;20239;-78
2022/11/17 00:05:40;;;;;;;16.00;9.80;;;13.90;99.90;;;;;;5070005;28;20179;-77
2022/11/17 00:08:08;;;;;;;12.87;9.20;;;13.90;99.90;;;;;;5065899;28;20242;-77
2022/11/17 00:10:35;;;;;;;10.87;8.63;;;13.90;99.90;;;;;;5059630;28;20190;-77
2022/11/17 00:15:47;;;;;;;13.00;9.10;;;13.80;99.90;;;;;;5073306;28;20181;-78
2022/11/17 00:21:20;;;;;;;15.53;9.87;;;13.80;99.90;;;;;;5069932;28;20186;-77
2022/11/17 00:23:46;;;;;;;13.37;9.03;;;13.80;99.90;;;;;;5052983;28;20208;-77
2022/11/17 00:26:19;;;;;;;9.90;8.43;;;13.70;99.90;;;;;;5069022;28;20217;-77
2022/11/17 00:28:47;;;;;;;14.00;9.43;;;13.70;99.90;;;;;;5066255;28;20193;-77
2022/11/17 00:34:04;;;;;;;12.80;8.83;;;13.60;99.90;;;;;;5085441;28;20239;-78
2022/11/17 00:36:39;;;;;;;13.20;8.87;;;13.60;99.90;;;;;;5073365;28;20200;-77
2022/11/17 00:39:08;;;;;;;12.53;8.60;;;13.60;99.90;;;;;;5067262;28;20558;-77
2022/11/17 00:41:34;;;;;;;13.07;8.60;;;13.60;99.90;;;;;;5087091;28;20226;-77
2022/11/17 00:44:02;;;;;;;12.80;8.27;;;13.50;99.90;;;;;;5057117;28;20182;-77
2022/11/17 00:46:29;;;;;;;19.90;8.27;;;13.50;99.90;;;;;;5064370;28;20218;-78
2022/11/17 00:48:56;;;;;;;12.60;8.60;;;13.50;99.90;;;;;;5086999;28;21003;-77
2022/11/17 00:51:24;;;;;;;12.47;9.13;;;13.40;99.90;;;;;;5077704;28;20619;-77
2022/11/17 00:53:51;;;;;;;10.50;8.30;;;13.40;99.90;;;;;;5051307;28;20172;-77
2022/11/17 00:56:17;;;;;;;12.23;8.70;;;13.50;99.90;;;;;;5055514;28;20566;-77
2022/11/17 00:58:44;;;;;;;12.97;8.20;;;13.50;99.90;;;;;;5059722;28;20578;-77
2022/11/17 01:01:11;;;;;;;13.37;7.77;;;13.40;99.90;;;;;;5081655;28;20190;-77
2022/11/17 01:03:38;;;;;;;12.30;8.13;;;13.40;99.90;;;;;;5054613;28;20220;-78
2022/11/17 01:06:12;;;;;;;13.73;8.43;;;13.40;99.90;;;;;;5072727;28;20286;-77
2022/11/17 01:08:40;;;;;;;8.83;7.83;;;13.40;99.90;;;;;;5061163;28;20552;-77
2022/11/17 01:11:24;;;;;;;10.07;7.93;;;13.30;99.90;;;;;;5085478;28;20639;-77
2022/11/17 01:13:56;;;;;;;8.60;6.73;;;13.30;99.90;;;;;;5052823;28;20222;-78
2022/11/17 01:16:24;;;;;;;10.40;8.20;;;13.30;99.90;;;;;;5071006;28;20232;-77
2022/11/17 01:18:52;;;;;;;16.50;8.10;;;13.30;99.90;;;;;;5068914;28;20272;-78
2022/11/17 01:21:23;;;;;;;10.27;8.13;;;13.30;99.90;;;;;;5047859;28;20650;-77
2022/11/17 01:23:54;;;;;;;9.33;7.47;;;13.20;99.90;;;;;;5052978;28;20191;-77
2022/11/17 01:26:26;;;;;;;10.33;7.63;;;13.30;99.90;;;;;;5071717;28;20240;-78
2022/11/17 01:28:53;;;;;;;12.80;8.07;;;13.20;99.90;;;;;;5055423;28;20178;-77
2022/11/17 01:31:29;;;;;;;11.03;7.50;;;13.20;99.90;;;;;;5070534;28;20759;-77
2022/11/17 01:33:56;;;;;;;9.43;7.27;;;13.20;99.90;;;;;;5071315;28;20211;-78
2022/11/17 01:36:30;;;;;;;11.07;7.53;;;13.00;99.90;;;;;;5069357;28;20209;-77
2022/11/17 01:38:57;;;;;;;11.67;7.50;;;12.90;99.90;;;;;;5070244;28;20217;-77
2022/11/17 01:41:28;;;;;;;11.13;7.63;;;13.10;99.90;;;;;;5078168;28;20192;-78
2022/11/17 01:44:37;;;;;;;9.53;7.63;;;13.10;99.90;;;;;;5072002;28;20272;-77
2022/11/17 01:47:22;;;;;;;13.37;8.47;;;13.10;99.90;;;;;;5068285;28;20213;-77
2022/11/17 01:49:53;;;;;;;11.23;7.63;;;12.90;99.90;;;;;;5071276;28;20201;-77
2022/11/17 01:52:22;;;;;;;12.33;7.63;;;13.00;99.90;;;;;;5059345;28;20723;-77
2022/11/17 01:54:54;;;;;;;9.20;7.03;;;13.10;99.90;;;;;;5062860;28;20352;-77
2022/11/17 01:57:31;;;;;;;11.93;7.63;;;13.10;99.90;;;;;;5069222;28;20232;-77
2022/11/17 02:00:07;;;;;;;9.10;7.17;;;13.10;99.90;;;;;;5048979;28;20236;-77
2022/11/17 02:02:37;;;;;;;9.83;7.03;;;13.10;99.90;;;;;;5054670;28;20527;-77
2022/11/17 02:05:28;;;;;;;9.93;7.37;;;13.10;99.90;;;;;;5045349;28;20193;-77
2022/11/17 02:07:58;;;;;;;10.20;6.80;;;13.10;99.90;;;;;;5052086;28;20774;-78
2022/11/17 02:10:25;;;;;;;10.43;6.97;;;13.10;99.90;;;;;;5045481;28;20182;-77
2022/11/17 02:12:53;;;;;;;11.87;7.13;;;13.10;99.90;;;;;;5066670;28;20190;-77
2022/11/17 02:15:23;;;;;;;11.23;6.77;;;13.10;99.90;;;;;;5067662;28;20206;-77
2022/11/17 02:17:51;;;;;;;8.60;6.40;;;13.10;99.90;;;;;;5053754;28;20194;-77
2022/11/17 02:21:09;;;;;;;9.17;6.90;;;13.10;99.90;;;;;;5076161;28;20212;-77
2022/11/17 02:24:06;;;;;;;7.90;6.00;;;13.10;99.90;;;;;;5069124;28;20663;-77
2022/11/17 02:27:14;;;;;;;7.53;6.60;;;13.10;99.90;;;;;;5066964;28;20796;-77
2022/11/17 02:29:51;;;;;;;10.30;7.30;;;13.10;99.90;;;;;;5066315;28;20183;-78
2022/11/17 02:32:43;;;;;;;10.30;6.73;;;13.10;99.90;;;;;;5066696;28;20263;-79
2022/11/17 02:35:45;;;;;;;10.77;7.17;;;13.10;99.90;;;;;;5064426;28;20186;-79
2022/11/17 02:38:53;;;;;;;8.60;6.60;;;13.10;99.90;;;;;;5053919;28;20198;-78
2022/11/17 02:41:32;;;;;;;9.33;7.77;;;13.10;99.90;;;;;;5056397;28;20190;-79
2022/11/17 02:44:19;;;;;;;9.37;7.03;;;13.10;99.90;;;;;;5084882;28;20197;-78
2022/11/17 02:47:20;;;;;;;10.27;7.23;;;13.10;99.90;;;;;;5085106;28;20244;-78
2022/11/17 02:49:55;;;;;;;11.67;7.13;;;13.10;99.90;;;;;;5059345;28;20234;-78
2022/11/17 02:52:23;;;;;;;8.73;6.93;;;13.20;99.90;;;;;;5071693;28;20707;-78
2022/11/17 02:54:49;;;;;;;11.00;7.57;;;13.20;99.90;;;;;;5072952;28;20229;-77
2022/11/17 02:57:35;;;;;;;14.00;7.67;;;13.20;99.90;;;;;;5072152;28;20255;-76
2022/11/17 03:00:14;;;;;;;10.20;7.00;;;13.30;99.90;;;;;;5056406;28;20222;-76
2022/11/17 03:03:25;;;;;;;9.80;6.90;;;13.30;99.90;;;;;;5067792;28;20206;-76
2022/11/17 03:06:11;;;;;;;11.67;7.67;;;13.30;99.90;;;;;;5056662;28;20193;-76
2022/11/17 03:09:19;;;;;;;9.47;7.27;;;13.40;99.90;;;;;;5067019;28;20647;-76
2022/11/17 03:12:08;;;;;;;10.70;7.20;;;13.40;99.90;;;;;;5067055;28;20882;-76
2022/11/17 03:15:23;;;;;;;12.43;7.43;;;13.40;99.90;;;;;;5050921;28;20269;-76
2022/11/17 03:17:52;;;;;;;8.47;7.63;;;13.40;99.90;;;;;;5029269;28;20283;-76
2022/11/17 03:20:30;;;;;;;10.10;7.43;;;13.40;99.90;;;;;;5052825;28;20279;-76
2022/11/17 03:23:13;;;;;;;13.37;8.00;;;13.40;99.90;;;;;;5077329;28;20214;-76
2022/11/17 03:25:48;;;;;;;13.40;8.10;;;13.40;99.90;;;;;;5083518;28;20997;-76
2022/11/17 03:28:18;;;;;;;14.77;8.03;;;13.50;99.90;;;;;;5065631;28;20182;-77
2022/11/17 03:30:48;;;;;;;11.53;7.47;;;13.50;99.90;;;;;;5069963;28;20182;-76
2022/11/17 03:33:20;;;;;;;14.43;8.23;;;13.50;99.90;;;;;;5083049;28;20286;-76
2022/11/17 03:36:06;;;;;;;9.10;7.57;;;13.50;99.90;;;;;;5072636;28;20194;-76
2022/11/17 03:38:39;;;;;;;11.17;7.63;;;13.50;99.90;;;;;;5056485;28;20181;-76
2022/11/17 03:41:11;;;;;;;9.63;7.80;;;13.50;99.90;;;;;;5072183;28;20252;-76
2022/11/17 03:43:41;;;;;;;9.17;7.20;;;13.50;99.90;;;;;;5075199;28;20243;-76
2022/11/17 03:46:16;;;;;;;8.50;7.37;;;13.50;99.90;;;;;;5088427;28;20224;-77
2022/11/17 03:48:52;;;;;;;8.87;7.60;;;13.50;99.90;;;;;;5078115;28;20174;-76
2022/11/17 03:51:26;;;;;;;9.53;7.47;;;13.40;99.90;;;;;;5085244;28;20239;-76
2022/11/17 03:53:54;;;;;;;9.03;7.37;;;13.40;99.90;;;;;;5082349;28;20197;-76
2022/11/17 03:57:18;;;;;;;9.60;6.97;;;13.40;99.90;;;;;;5083455;28;20182;-76
2022/11/17 04:00:07;;;;;;;12.73;7.60;;;13.30;99.90;;;;;;5060644;28;20222;-76
2022/11/17 04:02:33;;;;;;;8.90;7.27;;;13.30;99.90;;;;;;5085298;28;20183;-76
2022/11/17 04:05:06;;;;;;;12.10;7.20;;;13.30;99.90;;;;;;5067260;28;20198;-76
2022/11/17 04:07:59;;;;;;;9.67;7.03;;;13.30;99.90;;;;;;5053519;28;20234;-76
2022/11/17 04:10:26;;;;;;;9.20;7.37;;;13.30;99.90;;;;;;5062600;28;20186;-76
2022/11/17 04:15:57;;;;;;;9.67;7.13;;;13.30;99.90;;;;;;5066199;28;20979;-76
2022/11/17 04:18:25;;;;;;;11.87;7.30;;;13.40;99.90;;;;;;5069661;28;20175;-76
2022/11/17 04:20:55;;;;;;;9.53;7.10;;;13.40;99.90;;;;;;5068999;28;20178;-76
2022/11/17 04:23:23;;;;;;;10.87;7.73;;;13.40;99.90;;;;;;5072500;28;20174;-76
2022/11/17 04:28:47;;;;;;;12.47;7.23;;;13.40;99.90;;;;;;5073867;28;20236;-76
2022/11/17 04:31:25;;;;;;;11.27;8.20;;;13.40;99.90;;;;;;5079588;28;20189;-77
2022/11/17 04:33:54;;;;;;;9.57;7.70;;;13.30;99.90;;;;;;5066414;28;20582;-76
2022/11/17 04:36:27;;;;;;;11.10;7.27;;;13.30;99.90;;;;;;5056039;28;20260;-76
2022/11/17 04:38:56;;;;;;;10.20;7.40;;;13.30;99.90;;;;;;5075476;28;20190;-77
2022/11/17 04:44:15;;;;;;;9.77;7.17;;;13.30;99.90;;;;;;5085387;28;20260;-76
2022/11/17 04:46:45;;;;;;;12.17;7.53;;;13.40;99.90;;;;;;5056308;28;20314;-76
2022/11/17 04:49:14;;;;;;;12.43;7.80;;;13.40;99.90;;;;;;5057133;28;20185;-76
2022/11/17 04:51:41;;;;;;;11.53;7.33;;;13.40;99.90;;;;;;5057615;28;20261;-76
2022/11/17 04:54:11;;;;;;;13.07;7.70;;;13.50;99.90;;;;;;5080250;28;20182;-77
2022/11/17 04:56:38;;;;;;;9.67;6.93;;;13.50;99.90;;;;;;5075862;28;20668;-76
2022/11/17 04:59:06;;;;;;;9.80;7.00;;;13.50;99.90;;;;;;5050202;28;20190;-76
2022/11/17 05:01:33;;;;;;;8.90;7.43;;;13.50;99.90;;;;;;5052656;28;20851;-77
2022/11/17 05:04:06;;;;;;;10.93;6.93;;;13.50;99.90;;;;;;5050652;28;20232;-77
2022/11/17 05:06:43;;;;;;;9.27;7.43;;;13.50;99.90;;;;;;5066557;28;20252;-76
2022/11/17 05:09:15;;;;;;;9.47;7.67;;;13.50;99.90;;;;;;5062287;28;20589;-77
2022/11/17 05:14:29;;;;;;;12.33;7.90;;;13.60;99.90;;;;;;5064883;28;20186;-76
2022/11/17 05:17:04;;;;;;;10.20;7.43;;;13.60;99.90;;;;;;5061974;28;20662;-77
2022/11/17 05:19:51;;;;;;;13.53;7.43;;;13.60;99.90;;;;;;5050611;28;20228;-76
2022/11/17 05:25:31;;;;;;;9.87;7.60;;;13.70;99.90;;;;;;5003934;28;20188;-76
2022/11/17 05:27:58;;;;;;;10.87;8.27;;;13.70;99.90;;;;;;5005254;28;20295;-76
2022/11/17 05:30:25;;;;;;;9.93;7.70;;;13.70;99.90;;;;;;5034904;28;20213;-76
2022/11/17 05:32:51;;;;;;;11.67;7.57;;;13.80;99.90;;;;;;5070005;28;20197;-77
2022/11/17 05:35:17;;;;;;;11.43;7.70;;;13.80;99.90;;;;;;5082844;28;20238;-76
2022/11/17 05:37:43;;;;;;;9.97;7.50;;;13.90;99.90;;;;;;5079449;28;20186;-76
2022/11/17 05:40:11;;;;;;;8.90;7.60;;;14.00;99.90;;;;;;5053846;28;20191;-77
2022/11/17 05:42:37;;;;;;;11.20;7.93;;;14.00;99.90;;;;;;5050054;28;20282;-76
2022/11/17 05:45:04;;;;;;;9.97;7.57;;;14.10;99.90;;;;;;5067244;28;20179;-77
2022/11/17 05:47:31;;;;;;;10.57;7.63;;;14.20;99.90;;;;;;5054045;28;20580;-77
2022/11/17 05:50:01;;;;;;;9.97;7.40;;;14.30;99.90;;;;;;5048067;28;20297;-77
2022/11/17 05:52:28;;;;;;;10.80;8.03;;;14.40;99.90;;;;;;5059932;28;20277;-77
2022/11/17 05:54:55;;;;;;;8.47;7.53;;;14.40;99.90;;;;;;5040388;28;20189;-77
2022/11/17 05:57:30;;;;;;;9.50;7.43;;;14.50;99.90;;;;;;5071755;28;20228;-77
2022/11/17 06:00:03;;;;;;;9.73;7.40;;;14.50;99.90;;;;;;5083451;28;20190;-77
2022/11/17 06:02:42;;;;;;;9.03;7.37;;;14.50;99.90;;;;;;5078627;28;20247;-77
2022/11/17 06:05:10;;;;;;;9.73;7.73;;;14.50;99.90;;;;;;5049856;28;20743;-77
2022/11/17 06:07:38;;;;;;;8.80;7.33;;;14.50;99.90;;;;;;5077555;28;20206;-77
2022/11/17 06:10:05;;;;;;;11.50;8.13;;;14.60;99.90;;;;;;5054918;28;20520;-77
2022/11/17 06:12:31;;;;;;;10.37;7.57;;;14.60;99.90;;;;;;5085255;28;20594;-76
2022/11/17 06:15:01;;;;;;;12.67;7.83;;;14.80;99.90;;;;;;5067224;28;20250;-77
2022/11/17 06:17:56;;;;;;;9.50;7.77;;;14.80;99.90;;;;;;5051926;28;20674;-78
2022/11/17 06:20:33;;;;;;;8.40;7.10;;;14.90;99.90;;;;;;5052274;28;20201;-77
2022/11/17 06:23:05;;;;;;;10.07;7.83;;;14.90;99.90;;;;;;5053131;28;20207;-77
2022/11/17 06:25:35;;;;;;;13.10;8.00;;;14.90;99.90;;;;;;5070837;28;20554;-76
2022/11/17 06:28:05;;;;;;;9.77;7.27;;;14.90;99.90;;;;;;5087841;28;20213;-77
2022/11/17 06:30:35;;;;;;;10.30;7.97;;;14.90;99.90;;;;;;5054210;28;20197;-77
2022/11/17 06:33:04;;;;;;;11.87;7.73;;;15.00;99.90;;;;;;5063922;28;20577;-76
2022/11/17 06:35:34;;;;;;;9.60;7.20;;;15.00;99.90;;;;;;5063371;28;20178;-77
2022/11/17 06:38:01;;;;;;;9.83;7.53;;;14.90;99.90;;;;;;5088500;28;20189;-77
2022/11/17 06:40:28;;;;;;;8.50;7.17;;;15.00;99.90;;;;;;5077994;28;20346;-77
2022/11/17 06:43:02;;;;;;;8.77;7.87;;;15.00;99.90;;;;;;5047649;28;20209;-76
2022/11/17 06:45:36;;;;;;;12.00;8.20;;;15.00;99.90;;;;;;5048962;28;20190;-76
2022/11/17 06:48:04;;;;;;;9.87;7.87;;;15.00;99.90;;;;;;5061786;28;20234;-77
2022/11/17 06:50:31;;;;;;;13.73;8.10;;;15.00;99.90;;;;;;5074741;28;20186;-77
2022/11/17 06:53:06;;;;;;;10.33;7.93;;;15.00;99.90;;;;;;5062309;28;20589;-77
2022/11/17 06:55:35;;;;;;;10.83;7.33;;;15.00;99.90;;;;;;5077426;28;20220;-77
2022/11/17 06:58:06;;;;;;;11.23;7.20;;;15.10;99.90;;;;;;5061655;28;20182;-76
2022/11/17 07:00:35;;;;;;;9.33;8.10;;;15.10;99.90;;;;;;5058889;28;20858;-77
2022/11/17 07:03:08;;;;;;;9.63;7.97;;;15.10;99.90;;;;;;5068465;28;20581;-77
2022/11/17 07:05:37;;;;;;;9.80;7.80;;;15.10;99.90;;;;;;5068599;28;20243;-76
2022/11/17 07:08:06;;;;;;;12.37;7.57;;;15.10;99.90;;;;;;5050797;28;20210;-76
2022/11/17 07:10:35;;;;;;;8.80;7.57;;;15.20;99.90;;;;;;5065693;28;20729;-77
2022/11/17 07:13:03;;;;;;;8.53;7.27;;;15.20;99.90;;;;;;5087001;28;20793;-76
2022/11/17 07:15:30;;;;;;;9.50;7.57;;;15.10;99.90;;;;;;5062554;28;20182;-77
2022/11/17 07:18:26;;;;;;;10.00;6.97;;;15.10;99.90;;;;;;5062312;28;20190;-77
2022/11/17 07:20:53;;;;;;;8.47;6.80;;;15.10;99.90;;;;;;5079260;28;20190;-77
2022/11/17 07:23:19;;;;;;;7.70;6.47;;;15.10;99.90;;;;;;5067698;28;20309;-77
2022/11/17 07:25:46;;;;;;;10.63;6.50;;;15.20;99.90;;;;;;5064024;28;20183;-77
2022/11/17 07:28:13;;;;;;;9.47;6.67;;;15.30;99.90;;;;;;5044345;28;20660;-77
2022/11/17 07:30:40;;;;;;;8.60;7.03;;;15.30;99.90;;;;;;5079417;28;20190;-77
2022/11/17 07:33:07;;;;;;;10.03;6.40;;;15.30;99.90;;;;;;5081536;28;20190;-77
2022/11/17 07:35:35;;;;;;;10.97;6.83;;;15.30;99.90;;;;;;5070344;28;20193;-77
2022/11/17 07:38:03;;;;;;;9.93;6.50;;;15.30;99.90;;;;;;5052425;28;20554;-77
2022/11/17 07:40:31;;;;;;;10.83;6.90;;;15.30;99.90;;;;;;5062724;28;20201;-77
2022/11/17 07:42:57;;;;;;;9.23;6.53;;;15.40;99.90;;;;;;5059921;28;20319;-77
2022/11/17 07:45:24;;;;;;;7.00;6.13;;;15.40;99.90;;;;;;5060120;28;20187;-77
2022/11/17 07:47:59;;;;;;;12.50;6.67;;;15.50;99.90;;;;;;5050775;28;21073;-77
2022/11/17 07:50:27;;;;;;;8.93;6.37;;;15.60;99.90;;;;;;5056069;28;20275;-77
2022/11/17 07:52:56;;;;;;;11.60;6.67;;;15.70;99.90;;;;;;5063985;28;20257;-76
2022/11/17 07:55:25;;;;;;;8.87;6.43;;;15.80;99.90;;;;;;5067867;28;20384;-77
2022/11/17 07:57:58;;;;;;;8.27;5.87;;;15.90;99.90;;;;;;5071258;28;20197;-76
2022/11/17 08:00:29;;;;;;;11.37;6.10;;;15.90;99.90;;;;;;5054836;28;20186;-77
2022/11/17 08:03:03;;;;;;;8.23;5.87;;;16.10;99.90;;;;;;5048396;28;20657;-77
2022/11/17 08:05:34;;;;;;;8.73;5.57;;;16.10;99.90;;;;;;5082066;28;20561;-77
2022/11/17 08:08:00;;;;;;;9.20;5.87;;;16.10;99.90;;;;;;5045915;28;20214;-76
2022/11/17 08:10:30;;;;;;;9.80;6.10;;;16.10;99.90;;;;;;5067448;28;20252;-77
2022/11/17 08:13:02;;;;;;;11.17;6.17;;;16.10;99.90;;;;;;5060814;28;20187;-76
2022/11/17 08:15:30;;;;;;;8.17;5.40;;;16.20;99.90;;;;;;5069261;28;20289;-77
2022/11/17 08:17:59;;;;;;;8.67;5.17;;;16.10;99.90;;;;;;5064086;28;20191;-76
2022/11/17 08:20:28;;;;;;;8.43;4.67;;;16.20;99.90;;;;;;5067036;28;20191;-77
2022/11/17 08:22:55;;;;;;;6.87;4.67;;;16.20;99.90;;;;;;5049050;28;20183;-77
2022/11/17 08:25:25;;;;;;;6.97;4.40;;;16.30;99.90;;;;;;5071275;28;20178;-77
2022/11/17 08:27:58;;;;;;;5.20;4.10;;;16.40;99.90;;;;;;5087320;28;20221;-77
2022/11/17 08:30:27;;;;;;;7.47;4.10;;;16.60;99.90;;;;;;5085998;28;20271;-78
2022/11/17 08:32:54;;;;;;;8.03;3.87;;;16.70;99.90;;;;;;5044814;28;20182;-77
2022/11/17 08:35:24;;;;;;;6.80;4.00;;;16.80;99.90;;;;;;5049339;28;20224;-76
2022/11/17 08:37:51;;;;;;;5.37;3.70;;;16.70;99.90;;;;;;5068979;28;20186;-77
2022/11/17 08:40:18;;;;;;;7.60;3.63;;;16.70;99.90;;;;;;5081891;28;20194;-77
2022/11/17 08:42:45;;;;;;;4.93;3.97;;;16.60;99.90;;;;;;5078651;28;20611;-77
2022/11/17 08:45:13;;;;;;;6.83;4.07;;;16.70;99.90;;;;;;5064565;28;20286;-77
2022/11/17 08:47:40;;;;;;;7.57;4.20;;;16.70;99.90;;;;;;5069325;28;20758;-77
2022/11/17 08:50:08;;;;;;;7.07;4.10;;;16.70;99.90;;;;;;5055357;28;20186;-77
2022/11/17 08:52:34;;;;;;;6.87;3.23;;;16.60;99.90;;;;;;5074157;28;20273;-77
2022/11/17 08:55:01;;;;;;;4.73;3.30;;;16.60;99.90;;;;;;5062402;28;20233;-77
2022/11/17 08:57:32;;;;;;;6.90;3.40;;;16.70;99.90;;;;;;5066312;28;20178;-77
2022/11/17 08:59:59;;;;;;;4.33;3.30;;;16.80;99.90;;;;;;5068974;28;20187;-77
2022/11/17 09:02:25;;;;;;;9.17;3.43;;;16.90;99.90;;;;;;5066408;28;20843;-77
2022/11/17 09:04:51;;;;;;;5.90;3.20;;;17.00;99.90;;;;;;5042597;28;20183;-77
2022/11/17 09:07:18;;;;;;;7.50;3.40;;;17.10;99.90;;;;;;5062490;28;20231;-77
2022/11/17 09:09:47;;;;;;;5.23;3.43;;;17.20;99.90;;;;;;5071239;28;20235;-77
2022/11/17 09:12:15;;;;;;;6.47;3.13;;;17.30;99.90;;;;;;5055691;28;20198;-77
2022/11/17 09:14:41;;;;;;;7.33;3.53;;;17.30;99.90;;;;;;5063431;28;20189;-77
2022/11/17 09:17:08;;;;;;;11.83;3.30;;;17.40;99.90;;;;;;5068325;28;20237;-78
2022/11/17 09:19:35;;;;;;;8.00;3.50;;;17.40;99.90;;;;;;5055004;28;20190;-77
2022/11/17 09:22:04;;;;;;;3.97;3.37;;;17.40;99.90;;;;;;5094085;28;20694;-77
2022/11/17 09:24:31;;;;;;;7.23;3.23;;;17.50;99.90;;;;;;5065375;28;20209;-77
2022/11/17 09:27:04;;;;;;;5.27;3.50;;;17.50;99.90;;;;;;5066684;28;20563;-77
2022/11/17 09:29:31;;;;;;;7.00;3.53;;;17.50;99.90;;;;;;5065779;28;20197;-77
2022/11/17 09:31:57;;;;;;;6.63;3.50;;;17.50;99.90;;;;;;5073086;28;20256;-77
2022/11/17 09:34:24;;;;;;;6.43;3.67;;;17.40;99.90;;;;;;5080654;28;20318;-77
2022/11/17 09:36:53;;;;;;;13.40;3.80;;;17.30;99.90;;;;;;5064141;28;20251;-77
2022/11/17 09:39:21;;;;;;;6.80;3.50;;;17.40;99.90;;;;;;5075965;28;20209;-77
2022/11/17 09:41:55;;;;;;;6.10;3.60;;;17.40;99.90;;;;;;5063559;28;20672;-77
2022/11/17 09:44:53;;;;;;;4.63;3.30;;;17.50;99.90;;;;;;5044512;28;20200;-78
2022/11/17 09:48:01;;;;;;;5.80;3.10;;;17.50;99.90;;;;;;5061590;28;20259;-78
2022/11/17 09:50:39;;;;;;;4.30;3.00;;;17.50;99.90;;;;;;5064312;28;20186;-77
2022/11/17 09:53:34;;;;;;;8.10;3.50;;;17.70;99.90;;;;;;5060687;28;20240;-78
2022/11/17 09:56:07;;;;;;;4.30;3.33;;;17.70;99.90;;;;;;5062525;28;21160;-79
2022/11/17 09:59:11;;;;;;;8.17;3.20;;;17.80;99.90;;;;;;5047060;28;20186;-78
2022/11/17 10:01:38;;;;;;;5.00;3.17;;;17.90;99.90;;;;;;5044837;28;20190;-77
2022/11/17 10:04:15;;;;;;;5.70;2.87;;;18.10;99.90;;;;;;5048861;28;20179;-77
2022/11/17 10:06:48;;;;;;;5.70;3.27;;;17.90;99.90;;;;;;5070684;28;20678;-77
2022/11/17 10:09:28;;;;;;;7.43;3.27;;;17.80;99.90;;;;;;5056202;28;20189;-77
2022/11/17 10:12:14;;;;;;;6.80;3.10;;;17.80;99.90;;;;;;5079797;28;20178;-77
2022/11/17 10:14:42;;;;;;;4.50;2.87;;;17.70;99.90;;;;;;5066733;28;20186;-77
2022/11/17 10:17:09;;;;;;;6.73;3.20;;;17.60;99.90;;;;;;5063528;28;20189;-77
2022/11/17 10:19:39;;;;;;;6.63;3.63;;;17.60;99.90;;;;;;5066197;28;20190;-77
2022/11/17 10:22:06;;;;;;;7.73;4.23;;;17.50;99.90;;;;;;5060628;28;20182;-77
2022/11/17 10:24:49;;;;;;;7.67;4.00;;;17.40;99.90;;;;;;5052432;28;20539;-77
2022/11/17 10:27:32;;;;;;;6.67;4.00;;;17.10;99.90;;;;;;5061317;28;20254;-77
2022/11/17 10:30:22;;;;;;;7.53;4.07;;;17.00;99.90;;;;;;5075943;28;20196;-77
2022/11/17 10:32:56;;;;;;;10.53;4.47;;;16.80;99.90;;;;;;5039820;28;20231;-77
2022/11/17 10:35:33;;;;;;;11.27;4.40;;;16.70;99.90;;;;;;5049977;28;20182;-77
2022/11/17 10:38:21;;;;;;;7.23;4.10;;;16.60;99.90;;;;;;5080655;28;20808;-78
2022/11/17 10:40:51;;;;;;;10.37;4.60;;;16.60;99.90;;;;;;5087934;28;20186;-78
2022/11/17 10:43:33;;;;;;;7.87;4.60;;;16.50;99.90;;;;;;5081427;28;20200;-78
2022/11/17 10:46:22;;;;;;;8.57;4.40;;;16.50;99.90;;;;;;5055393;28;20186;-77
2022/11/17 10:49:03;;;;;;;6.37;4.23;;;16.30;99.90;;;;;;5085430;28;20659;-78
2022/11/17 10:51:33;;;;;;;8.07;4.30;;;16.40;99.90;;;;;;5074714;28;20309;-77
2022/11/17 10:54:04;;;;;;;7.43;4.13;;;16.40;99.90;;;;;;5055450;28;20182;-77
2022/11/17 10:56:38;;;;;;;6.87;4.10;;;16.40;99.90;;;;;;5085366;28;20186;-77
2022/11/17 10:59:32;;;;;;;8.33;4.20;;;16.40;99.90;;;;;;5065152;28;20193;-77
2022/11/17 11:02:29;;;;;;;7.97;4.77;;;16.40;99.90;;;;;;5065196;28;20175;-77
2022/11/17 11:05:14;;;;;;;5.33;3.90;;;16.40;99.90;;;;;;5075489;28;20216;-77
2022/11/17 11:07:41;;;;;;;8.37;4.57;;;16.30;99.90;;;;;;5079467;28;20260;-77
2022/11/17 11:10:19;;;;;;;10.20;4.70;;;16.30;99.90;;;;;;5054340;28;20954;-77
2022/11/17 11:13:11;;;;;;;6.10;4.20;;;16.30;99.90;;;;;;5064736;28;20182;-77
2022/11/17 11:15:39;;;;;;;10.37;4.83;;;16.40;99.90;;;;;;5082193;28;20316;-77
2022/11/17 11:18:17;;;;;;;6.63;4.50;;;16.50;99.90;;;;;;5095155;28;20197;-78
2022/11/17 11:20:52;;;;;;;7.07;4.37;;;16.70;99.90;;;;;;5060799;28;20194;-77
2022/11/17 11:23:33;;;;;;;8.00;4.30;;;16.90;99.90;;;;;;5070289;28;20209;-78
2022/11/17 11:26:21;;;;;;;9.80;4.30;;;17.00;99.90;;;;;;5070612;28;20195;-77
2022/11/17 11:29:04;;;;;;;7.33;4.03;;;17.20;99.90;;;;;;5066947;28;20190;-78
2022/11/17 11:32:16;;;;;;;6.10;3.70;;;17.30;99.90;;;;;;5070310;28;20194;-78
2022/11/17 11:35:02;;;;;;;9.67;3.87;;;17.20;99.90;;;;;;5050786;28;20182;-78
2022/11/17 11:38:04;;;;;;;5.57;3.63;;;17.20;99.90;;;;;;5048804;28;20190;-78
2022/11/17 11:40:46;;;;;;;5.73;4.07;;;17.30;99.90;;;;;;5028592;28;20216;-78
2022/11/17 11:43:50;;;;;;;6.00;3.73;;;17.50;99.90;;;;;;5055919;28;20202;-78
2022/11/17 11:47:04;;;;;;;6.10;3.00;;;17.60;99.90;;;;;;5051244;28;20237;-78
2022/11/17 11:49:57;;;;;;;6.50;3.03;;;17.70;99.90;;;;;;5077086;28;20313;-78
2022/11/17 11:52:36;;;;;;;7.07;4.20;;;17.80;99.90;;;;;;5071891;28;20186;-78
2022/11/17 11:55:36;;;;;;;5.73;4.90;;;17.80;99.90;;;;;;5079446;28;20186;-78
2022/11/17 11:58:23;;;;;;;6.40;3.27;;;17.90;99.90;;;;;;5061753;28;20260;-77
2022/11/17 12:01:01;;;;;;;8.60;5.30;;;18.00;99.90;;;;;;5066398;28;20195;-78
2022/11/17 12:04:06;;;;;;;10.77;7.33;;;18.00;99.90;;;;;;5072822;28;20212;-78
2022/11/17 12:07:32;;;;;;;7.10;5.10;;;17.80;99.90;;;;;;5062270;28;20228;-77
2022/11/17 12:10:15;;;;;;;5.73;4.03;;;17.70;99.90;;;;;;5008981;28;20185;-77
2022/11/17 12:12:46;;;;;;;6.77;3.27;;;17.60;99.90;;;;;;5047404;28;20558;-77
2022/11/17 12:15:34;;;;;;;7.57;3.90;;;17.50;99.90;;;;;;5070331;28;20193;-77
2022/11/17 12:18:06;;;;;;;7.40;3.40;;;17.50;99.90;;;;;;5086137;28;20189;-77
2022/11/17 12:20:39;;;;;;;3.63;2.87;;;17.60;99.90;;;;;;5064085;28;20203;-77
2022/11/17 12:23:36;;;;;;;7.73;3.23;;;17.60;99.90;;;;;;5062226;28;20967;-78
2022/11/17 12:26:04;;;;;;;6.73;2.80;;;17.60;99.90;;;;;;5066173;28;20186;-77
2022/11/17 12:28:43;;;;;;;5.47;3.13;;;17.70;99.90;;;;;;5082566;28;20392;-77
2022/11/17 12:31:23;;;;;;;5.77;2.80;;;17.70;99.90;;;;;;5065769;28;20190;-78
2022/11/17 12:33:52;;;;;;;5.27;2.93;;;17.80;99.90;;;;;;5064017;28;20222;-77
2022/11/17 12:36:32;;;;;;;5.50;2.67;;;17.90;99.90;;;;;;5050821;28;20178;-77
2022/11/17 12:39:02;;;;;;;7.87;2.60;;;17.90;99.90;;;;;;5071386;28;20182;-77
2022/11/17 12:42:08;;;;;;;6.77;2.67;;;17.90;99.90;;;;;;5069215;28;20186;-78
2022/11/17 12:44:49;;;;;;;3.67;2.13;;;17.90;99.90;;;;;;5013106;28;20290;-77
2022/11/17 12:47:53;;;;;;;7.77;2.37;;;17.90;99.90;;;;;;5046905;28;20217;-77
2022/11/17 12:51:08;;;;;;;6.00;1.90;;;17.90;99.90;;;;;;5048993;28;20669;-76
2022/11/17 12:53:58;;;;;;;7.60;2.30;;;17.80;99.90;;;;;;5066163;28;20191;-77
2022/11/17 12:57:00;;;;;;;3.57;2.27;;;17.80;99.90;;;;;;5073825;28;20269;-77
2022/11/17 13:00:01;;;;;;;4.40;2.07;;;17.70;99.90;;;;;;5067182;28;20198;-77
2022/11/17 13:03:18;;;;;;;7.63;2.47;;;17.60;99.90;;;;;;5067246;28;20183;-77
2022/11/17 13:06:04;;;;;;;4.67;2.07;;;17.60;99.90;;;;;;5053158;28;20186;-77
2022/11/17 13:08:30;;;;;;;7.03;2.10;;;17.60;99.90;;;;;;5077941;28;20210;-77
2022/11/17 13:11:13;;;;;;;3.47;1.80;;;17.50;99.90;;;;;;5065687;28;20260;-77
2022/11/17 13:13:40;;;;;;;6.30;2.07;;;17.50;99.90;;;;;;5060763;28;20273;-77
2022/11/17 13:16:20;;;;;;;4.07;2.20;;;17.40;99.90;;;;;;5062750;28;20178;-77
2022/11/17 13:18:48;;;;;;;5.47;2.33;;;17.30;99.90;;;;;;5046146;28;20185;-77
2022/11/17 13:21:31;;;;;;;4.63;2.23;;;17.30;99.90;;;;;;5077079;28;20182;-77
2022/11/17 13:23:59;;;;;;;4.30;1.87;;;17.30;99.90;;;;;;5072145;28;20198;-77
2022/11/17 13:26:36;;;;;;;6.67;2.10;;;17.30;99.90;;;;;;5077643;28;20233;-77
2022/11/17 13:29:17;;;;;;;7.70;2.10;;;17.30;99.90;;;;;;5042485;28;20260;-77
2022/11/17 13:31:43;;;;;;;3.90;2.00;;;17.20;99.90;;;;;;5062178;28;20284;-77
2022/11/17 13:34:15;;;;;;;8.77;2.43;;;17.30;99.90;;;;;;5070504;28;20178;-77
2022/11/17 13:36:58;;;;;;;5.57;2.03;;;17.30;99.90;;;;;;5062159;28;20194;-77
2022/11/17 13:39:26;;;;;;;6.80;1.70;;;17.30;99.90;;;;;;5068140;28;20914;-77
2022/11/17 13:41:53;;;;;;;4.80;2.20;;;17.30;99.90;;;;;;5063408;28;20236;-77
2022/11/17 13:44:32;;;;;;;4.00;1.83;;;17.20;99.90;;;;;;5061018;28;20195;-77
2022/11/17 13:47:19;;;;;;;7.03;2.63;;;17.30;99.90;;;;;;5045562;28;20214;-77
2022/11/17 13:49:46;;;;;;;3.47;1.93;;;17.20;99.90;;;;;;5081852;28;20183;-77